createdAt,value
2022-09-07T00:02:21.860Z,0
2022-09-07T00:07:33.978Z,0
2022-09-07T00:12:46.275Z,0
2022-09-07T00:17:58.603Z,0
2022-09-07T00:29:38.707Z,0
2022-09-07T00:34:51.482Z,0
2022-09-07T00:40:03.874Z,0
2022-09-07T00:45:16.065Z,0
2022-09-07T00:50:28.336Z,0
2022-09-07T00:55:40.661Z,0
2022-09-07T01:00:53.002Z,0
2022-09-07T01:06:05.365Z,0
2022-09-07T01:11:18.024Z,0
2022-09-07T01:16:30.437Z,0
2022-09-07T01:21:42.784Z,0
2022-09-07T01:26:55.020Z,0
2022-09-07T01:32:07.770Z,0
2022-09-07T01:37:20.473Z,0
2022-09-07T01:42:33.058Z,0
2022-09-07T01:47:45.637Z,0
2022-09-07T01:52:58.166Z,0
2022-09-07T02:03:22.798Z,0
2022-09-07T02:08:35.221Z,0
2022-09-07T02:13:47.555Z,0
2022-09-07T02:19:00.085Z,0
2022-09-07T02:24:12.237Z,0
2022-09-07T02:29:26.084Z,0
2022-09-07T02:34:36.734Z,0
2022-09-07T02:39:49.167Z,0
2022-09-07T02:45:01.132Z,0
2022-09-07T02:50:13.305Z,0
2022-09-07T02:55:25.648Z,0
2022-09-07T03:00:37.836Z,0
2022-09-07T03:05:50.050Z,0
2022-09-07T03:11:02.185Z,0
2022-09-07T03:16:14.571Z,0
2022-09-07T03:21:26.845Z,0
2022-09-07T03:26:39.268Z,0
2022-09-07T03:31:52.591Z,0
2022-09-07T03:37:03.948Z,0
2022-09-07T03:42:16.255Z,0
2022-09-07T03:47:28.468Z,0
2022-09-07T03:52:40.787Z,0
2022-09-07T03:57:52.992Z,0
2022-09-07T04:03:05.159Z,0
2022-09-07T04:08:17.564Z,34
2022-09-07T04:13:30.214Z,742
2022-09-07T04:18:42.411Z,1573
2022-09-07T04:23:54.839Z,2056
2022-09-07T04:29:07.238Z,2787
2022-09-07T04:34:19.591Z,3242
2022-09-07T04:39:32.053Z,4004
2022-09-07T04:44:44.307Z,4641
2022-09-07T04:49:56.833Z,5124
2022-09-07T04:55:09.626Z,5135
2022-09-07T05:00:21.853Z,5175
2022-09-07T05:05:34.624Z,5198
2022-09-07T05:10:46.929Z,5195
2022-09-07T05:15:59.598Z,5103
2022-09-07T05:21:11.856Z,5142
2022-09-07T05:26:24.234Z,5165
2022-09-07T05:31:36.668Z,5094
2022-09-07T05:36:49.281Z,5170
2022-09-07T05:42:01.592Z,5135
2022-09-07T05:47:13.949Z,5135
2022-09-07T05:52:26.374Z,5069
2022-09-07T05:57:38.707Z,5152
2022-09-07T06:02:51.733Z,5106
2022-09-07T06:08:04.056Z,5172
2022-09-07T06:13:16.492Z,5135
2022-09-07T06:18:28.791Z,5204
2022-09-07T06:23:41.215Z,5145
2022-09-07T06:28:57.246Z,5172
2022-09-07T06:34:06.038Z,5184
2022-09-07T06:39:18.604Z,5207
2022-09-07T06:44:30.837Z,5211
2022-09-07T06:49:43.369Z,5209
2022-09-07T06:54:59.239Z,5211
2022-09-07T07:00:08.617Z,5145
2022-09-07T07:05:21.171Z,5181
2022-09-07T07:10:33.572Z,5117
2022-09-07T07:15:45.880Z,5163
2022-09-07T07:20:58.440Z,5216
2022-09-07T07:31:23.154Z,5188
2022-09-07T07:36:48.504Z,5172
2022-09-07T07:42:02.980Z,5112
2022-09-07T07:47:13.253Z,5223
2022-09-07T07:57:37.882Z,5168
2022-09-07T08:02:50.607Z,5191
2022-09-07T08:08:02.918Z,5179
2022-09-07T08:13:15.278Z,5227
2022-09-07T08:18:27.666Z,5170
2022-09-07T08:23:39.963Z,5145
2022-09-07T08:28:52.446Z,5142
2022-09-07T08:34:04.747Z,5227
2022-09-07T08:39:17.361Z,5198
2022-09-07T08:44:29.751Z,5211
2022-09-07T08:49:42.164Z,5131
2022-09-07T08:54:54.694Z,5161
2022-09-07T09:00:07.151Z,5198
2022-09-07T09:05:19.907Z,5209
2022-09-07T09:10:34.762Z,5177
2022-09-07T09:15:47.412Z,5198
2022-09-07T09:20:59.694Z,5200
2022-09-07T09:26:12.086Z,5211
2022-09-07T09:31:24.785Z,5195
2022-09-07T09:36:37.366Z,5221
2022-09-07T09:41:54.752Z,5232
2022-09-07T09:52:43.817Z,5195
2022-09-07T09:57:32.002Z,5198
2022-09-07T10:07:56.807Z,5262
2022-09-07T10:13:09.215Z,5262
2022-09-07T10:18:21.588Z,5239
2022-09-07T10:34:28.299Z,5239
2022-09-07T10:39:11.004Z,5241
2022-09-07T10:44:23.307Z,5216
2022-09-07T10:49:35.624Z,5221
2022-09-07T10:54:48.151Z,5262
2022-09-07T11:00:08.480Z,5195
2022-09-07T11:05:12.709Z,5239
2022-09-07T11:10:25.207Z,5237
2022-09-07T11:15:37.395Z,5234
2022-09-07T11:20:49.665Z,5262
2022-09-07T11:26:01.987Z,5262
2022-09-07T11:31:14.412Z,5244
2022-09-07T11:36:26.587Z,5246
2022-09-07T11:41:39.072Z,5227
2022-09-07T11:46:51.677Z,5248
2022-09-07T11:52:05.446Z,5246
2022-09-07T11:57:16.349Z,5264
2022-09-07T12:02:48.640Z,5246
2022-09-07T12:07:41.005Z,5267
2022-09-07T12:12:53.316Z,5269
2022-09-07T12:18:05.917Z,5255
2022-09-07T12:23:18.166Z,5271
2022-09-07T12:28:30.423Z,5248
2022-09-07T12:33:42.738Z,5250
2022-09-07T12:38:54.924Z,5267
2022-09-07T12:44:07.224Z,5253
2022-09-07T12:49:20.041Z,5260
2022-09-07T12:54:32.233Z,5260
2022-09-07T12:59:44.641Z,5264
2022-09-07T13:04:56.989Z,5218
2022-09-07T13:10:09.164Z,5250
2022-09-07T13:15:24.094Z,5264
2022-09-07T13:20:37.727Z,5250
2022-09-07T13:25:46.025Z,5267
2022-09-07T13:31:04.168Z,5223
2022-09-07T13:36:16.831Z,5267
2022-09-07T13:41:29.249Z,5195
2022-09-07T13:46:41.538Z,5244
2022-09-07T13:51:53.937Z,5273
2022-09-07T13:57:06.074Z,5260
2022-09-07T14:02:18.508Z,5273
2022-09-07T14:07:31.005Z,5257
2022-09-07T14:12:43.413Z,5250
2022-09-07T14:17:55.728Z,5255
2022-09-07T14:23:08.226Z,5255
2022-09-07T14:28:20.668Z,5244
2022-09-07T14:33:33.179Z,5223
2022-09-07T14:43:57.328Z,5255
2022-09-07T14:49:09.657Z,5269
2022-09-07T14:54:22.041Z,5223
2022-09-07T14:59:34.417Z,5262
2022-09-07T15:04:46.811Z,5276
2022-09-07T15:09:59.506Z,5296
2022-09-07T15:15:12.020Z,5280
2022-09-07T15:20:24.526Z,5296
2022-09-07T15:25:36.878Z,5310
2022-09-07T15:31:39.528Z,5303
2022-09-07T15:36:01.586Z,5271
2022-09-07T15:41:23.501Z,5271
2022-09-07T15:46:26.093Z,5273
2022-09-07T16:02:03.134Z,5237
2022-09-07T16:07:14.873Z,5211
2022-09-07T16:17:47.080Z,5237
2022-09-07T16:28:03.668Z,5269
2022-09-07T16:33:16.010Z,5255
2022-09-07T16:38:44.635Z,5250
2022-09-07T16:43:40.902Z,5253
2022-09-07T16:48:53.063Z,5257
2022-09-07T16:54:05.613Z,5264
2022-09-07T16:59:17.882Z,5239
2022-09-07T17:04:30.324Z,5241
2022-09-07T17:09:42.709Z,5273
2022-09-07T17:14:54.937Z,5227
2022-09-07T17:20:07.120Z,4349
2022-09-07T17:25:19.443Z,2757
2022-09-07T17:30:31.904Z,2898
2022-09-07T17:35:44.321Z,2189
2022-09-07T17:40:56.544Z,1329
2022-09-07T17:46:09.115Z,830
2022-09-07T17:51:21.708Z,368
2022-09-07T17:56:33.607Z,9
2022-09-07T18:01:46.277Z,0
2022-09-07T18:06:59.197Z,0
2022-09-07T18:12:11.511Z,0
2022-09-07T18:17:23.843Z,0
2022-09-07T18:22:36.030Z,0
2022-09-07T18:29:02.970Z,0
2022-09-07T18:33:00.832Z,0
2022-09-07T18:43:26.039Z,0
2022-09-07T18:48:38.067Z,0
2022-09-07T18:53:50.372Z,0
2022-09-07T18:59:02.777Z,0
2022-09-07T19:04:15.162Z,0
2022-09-07T19:09:27.863Z,0
2022-09-07T19:14:40.237Z,0
2022-09-07T19:19:52.761Z,0
2022-09-07T19:25:05.185Z,0
2022-09-07T19:30:17.804Z,0
2022-09-07T19:35:30.221Z,0
2022-09-07T19:40:42.639Z,0
2022-09-07T19:45:55.088Z,0
2022-09-07T19:51:07.318Z,0
2022-09-07T19:56:19.705Z,0
2022-09-07T20:01:32.012Z,0
2022-09-07T20:06:44.494Z,0
2022-09-07T20:11:56.909Z,0
2022-09-07T20:17:09.551Z,0
2022-09-07T20:22:21.874Z,0
2022-09-07T20:27:34.069Z,0
2022-09-07T20:32:46.541Z,0
2022-09-07T20:37:58.831Z,0
2022-09-07T20:43:11.234Z,0
2022-09-07T20:48:23.798Z,0
2022-09-07T20:53:36.400Z,0
2022-09-07T20:58:48.526Z,0
2022-09-07T21:04:00.959Z,0
2022-09-07T21:09:13.343Z,0
2022-09-07T21:14:25.716Z,0
2022-09-07T21:19:37.952Z,0
2022-09-07T21:30:02.800Z,0
2022-09-07T21:35:15.678Z,0
2022-09-07T21:40:28.057Z,0
2022-09-07T21:45:40.542Z,0
2022-09-07T21:50:52.782Z,0
2022-09-07T21:56:05.082Z,0
2022-09-07T22:01:17.589Z,0
2022-09-07T22:06:29.756Z,0
2022-09-07T22:11:45.346Z,0
2022-09-07T22:16:54.162Z,0
2022-09-07T22:22:06.738Z,0
2022-09-07T22:27:19.062Z,0
2022-09-07T22:32:31.581Z,0
2022-09-07T22:37:44.015Z,0
2022-09-07T22:42:56.553Z,0
2022-09-07T22:48:08.754Z,0
2022-09-07T22:53:21.175Z,0
2022-09-07T22:58:34.338Z,0
2022-09-07T23:03:46.875Z,0
2022-09-07T23:08:59.198Z,0
2022-09-07T23:14:11.599Z,0
2022-09-07T23:19:24.211Z,0
2022-09-07T23:24:36.567Z,0
2022-09-07T23:29:48.783Z,0
2022-09-07T23:35:01.122Z,0
2022-09-07T23:40:13.570Z,0
2022-09-07T23:45:25.763Z,0
2022-09-07T23:50:38.084Z,0
2022-09-07T23:55:50.406Z,0
